Time;durP1;ratioP1;P1;durP2;ratioP2;P2;SDS_P1;SDS_P2;PMS_P1;PMS_P2;Temp;Humidity;BMP_temperature;BMP_pressure;BME280_temperature;BME280_humidity;BME280_pressure;Samples;Min_cycle;Max_cycle;Signal;HPM_P1;HPM_P2
2021/05/03 00:01:27;;;;;;;23.30;7.00;;;;;;;;;;4271665;33;20334;-58
2021/05/03 00:03:53;;;;;;;22.08;7.53;;;;;;;;;;4261917;33;20325;-57
2021/05/03 00:06:18;;;;;;;27.70;8.10;;;;;;;;;;4278313;33;20251;-56
2021/05/03 00:08:44;;;;;;;30.55;7.50;;;;;;;;;;4282467;33;20738;-56
2021/05/03 00:11:10;;;;;;;29.75;8.95;;;;;;;;;;4273036;33;20342;-59
2021/05/03 00:13:36;;;;;;;14.57;6.12;;;;;;;;;;4275491;33;20256;-56
2021/05/03 00:16:02;;;;;;;17.27;4.20;;;;;;;;;;4279210;33;20311;-57
2021/05/03 00:18:27;;;;;;;24.63;5.30;;;;;;;;;;4273524;33;20752;-58
2021/05/03 00:20:53;;;;;;;26.60;6.87;;;;;;;;;;4274480;33;20286;-58
2021/05/03 00:23:18;;;;;;;20.55;7.97;;;;;;;;;;4261446;33;20764;-58
2021/05/03 00:25:44;;;;;;;17.95;6.32;;;;;;;;;;4273737;33;20251;-58
2021/05/03 00:28:09;;;;;;;18.70;7.68;;;;;;;;;;4270437;33;20221;-58
2021/05/03 00:30:35;;;;;;;18.60;7.40;;;;;;;;;;4274238;33;20243;-59
2021/05/03 00:33:00;;;;;;;18.08;5.12;;;;;;;;;;4271450;33;20348;-59
2021/05/03 00:35:26;;;;;;;15.55;4.75;;;;;;;;;;4277674;33;20382;-58
2021/05/03 00:37:52;;;;;;;15.20;4.22;;;;;;;;;;4270101;33;20204;-58
2021/05/03 00:40:17;;;;;;;14.70;3.95;;;;;;;;;;4278472;33;20243;-59
2021/05/03 00:42:44;;;;;;;16.50;3.75;;;;;;;;;;4272936;33;20216;-59
2021/05/03 00:45:16;;;;;;;28.08;5.72;;;;;;;;;;4282878;33;20400;-58
2021/05/03 00:47:42;;;;;;;19.83;5.72;;;;;;;;;;4270406;33;20200;-58
2021/05/03 00:50:10;;;;;;;17.08;5.70;;;;;;;;;;4286271;33;20236;-58
2021/05/03 00:52:36;;;;;;;19.60;6.65;;;;;;;;;;4285816;33;20351;-58
2021/05/03 00:55:04;;;;;;;19.20;5.72;;;;;;;;;;4276574;33;20212;-59
2021/05/03 00:57:30;;;;;;;25.23;6.25;;;;;;;;;;4277862;33;20236;-58
2021/05/03 00:59:56;;;;;;;17.98;6.90;;;;;;;;;;4283400;33;20653;-57
2021/05/03 01:02:22;;;;;;;21.35;4.62;;;;;;;;;;4270489;33;20293;-59
2021/05/03 01:04:47;;;;;;;20.83;3.45;;;;;;;;;;4271582;33;20345;-58
2021/05/03 01:07:13;;;;;;;7.43;2.70;;;;;;;;;;4268925;33;20373;-61
2021/05/03 01:09:39;;;;;;;7.40;2.53;;;;;;;;;;4272747;33;20693;-59
2021/05/03 01:12:05;;;;;;;8.73;2.75;;;;;;;;;;4271494;33;20238;-56
2021/05/03 01:14:31;;;;;;;16.30;2.72;;;;;;;;;;4279168;33;20346;-57
2021/05/03 01:16:56;;;;;;;12.57;2.70;;;;;;;;;;4259233;33;20216;-56
2021/05/03 01:19:22;;;;;;;12.80;2.37;;;;;;;;;;4277068;33;20323;-56
2021/05/03 01:21:48;;;;;;;12.07;3.22;;;;;;;;;;4267827;33;20272;-57
2021/05/03 01:24:15;;;;;;;7.72;1.90;;;;;;;;;;4277290;33;20670;-59
2021/05/03 01:26:42;;;;;;;10.07;2.87;;;;;;;;;;4275705;33;20243;-59
2021/05/03 01:29:07;;;;;;;17.80;2.83;;;;;;;;;;4269579;33;20945;-58
2021/05/03 01:31:33;;;;;;;12.18;2.45;;;;;;;;;;4277095;33;20231;-58
2021/05/03 01:34:07;;;;;;;9.65;2.22;;;;;;;;;;4268497;33;20816;-59
2021/05/03 01:36:41;;;;;;;12.10;2.47;;;;;;;;;;4276862;33;20248;-59
2021/05/03 01:39:09;;;;;;;15.82;2.92;;;;;;;;;;4280837;33;20203;-59
2021/05/03 01:41:35;;;;;;;8.50;2.42;;;;;;;;;;4268262;33;20240;-58
2021/05/03 01:44:02;;;;;;;11.05;2.78;;;;;;;;;;4271963;33;20561;-58
2021/05/03 01:46:29;;;;;;;8.45;2.28;;;;;;;;;;4273425;33;20796;-60
2021/05/03 01:48:58;;;;;;;8.65;2.33;;;;;;;;;;4277852;33;20250;-60
2021/05/03 01:51:24;;;;;;;8.93;2.08;;;;;;;;;;4274579;33;20243;-61
2021/05/03 01:53:50;;;;;;;12.50;2.30;;;;;;;;;;4270028;33;20276;-60
2021/05/03 01:56:16;;;;;;;6.05;2.03;;;;;;;;;;4270540;33;20290;-59
2021/05/03 01:58:42;;;;;;;10.32;2.62;;;;;;;;;;4268481;33;20243;-60
2021/05/03 02:01:08;;;;;;;13.65;1.50;;;;;;;;;;4266727;33;20832;-59
2021/05/03 02:03:34;;;;;;;17.37;2.05;;;;;;;;;;4273521;33;20287;-58
2021/05/03 02:06:00;;;;;;;7.22;2.00;;;;;;;;;;4271407;33;20213;-57
2021/05/03 02:08:26;;;;;;;16.05;2.00;;;;;;;;;;4264353;33;20275;-56
2021/05/03 02:10:53;;;;;;;9.73;2.42;;;;;;;;;;4278614;33;20386;-58
2021/05/03 02:13:19;;;;;;;6.70;1.62;;;;;;;;;;4273357;33;20307;-59
2021/05/03 02:15:49;;;;;;;11.43;1.90;;;;;;;;;;4274404;33;20326;-58
2021/05/03 02:18:16;;;;;;;9.57;1.73;;;;;;;;;;4269770;33;20255;-60
2021/05/03 02:20:42;;;;;;;10.57;1.73;;;;;;;;;;4280393;33;20439;-59
2021/05/03 02:23:07;;;;;;;7.10;2.05;;;;;;;;;;4263731;33;20204;-59
2021/05/03 02:25:33;;;;;;;12.55;2.62;;;;;;;;;;4276536;33;20290;-60
2021/05/03 02:27:59;;;;;;;12.55;2.03;;;;;;;;;;4264931;33;20720;-61
2021/05/03 02:30:26;;;;;;;6.25;1.50;;;;;;;;;;4269600;33;20312;-56
2021/05/03 02:32:51;;;;;;;4.93;1.62;;;;;;;;;;4270414;33;20295;-61
2021/05/03 02:35:22;;;;;;;5.20;1.67;;;;;;;;;;4270771;33;20796;-62
2021/05/03 02:37:51;;;;;;;9.60;1.52;;;;;;;;;;4270859;33;20201;-60
2021/05/03 02:40:17;;;;;;;5.82;1.42;;;;;;;;;;4276913;33;20558;-59
2021/05/03 02:42:49;;;;;;;5.95;1.50;;;;;;;;;;4269975;33;20490;-60
2021/05/03 02:45:15;;;;;;;5.00;1.67;;;;;;;;;;4270653;33;20232;-60
2021/05/03 02:47:42;;;;;;;8.55;1.48;;;;;;;;;;4279269;33;20234;-61
2021/05/03 02:50:08;;;;;;;7.45;2.15;;;;;;;;;;4269181;33;20280;-61
2021/05/03 02:52:34;;;;;;;7.43;2.12;;;;;;;;;;4258732;33;20683;-60
2021/05/03 02:55:00;;;;;;;5.72;1.37;;;;;;;;;;4263508;33;20228;-60
2021/05/03 02:57:26;;;;;;;11.35;2.10;;;;;;;;;;4280386;33;20204;-60
2021/05/03 02:59:51;;;;;;;7.53;2.33;;;;;;;;;;4284727;33;20251;-60
2021/05/03 03:02:17;;;;;;;6.78;1.75;;;;;;;;;;4273494;33;20237;-60
2021/05/03 03:04:42;;;;;;;11.23;5.30;;;;;;;;;;4268115;33;20232;-59
2021/05/03 03:07:08;;;;;;;12.10;7.55;;;;;;;;;;4262068;33;20328;-59
2021/05/03 03:09:34;;;;;;;14.93;8.23;;;;;;;;;;4282948;33;20244;-61
2021/05/03 03:12:00;;;;;;;18.65;7.30;;;;;;;;;;4273576;33;20659;-61
2021/05/03 03:14:27;;;;;;;17.83;7.25;;;;;;;;;;4280819;33;21031;-60
2021/05/03 03:16:53;;;;;;;10.77;4.30;;;;;;;;;;4274504;33;20215;-57
2021/05/03 03:19:18;;;;;;;9.55;3.15;;;;;;;;;;4276148;33;20371;-56
2021/05/03 03:21:44;;;;;;;8.15;3.15;;;;;;;;;;4277038;33;20698;-57
2021/05/03 03:24:10;;;;;;;10.25;2.45;;;;;;;;;;4279267;33;20279;-57
2021/05/03 03:26:35;;;;;;;5.80;2.10;;;;;;;;;;4276018;33;20216;-57
2021/05/03 03:29:05;;;;;;;5.60;2.42;;;;;;;;;;4273045;33;20660;-57
2021/05/03 03:31:30;;;;;;;4.93;2.37;;;;;;;;;;4280577;33;20307;-57
2021/05/03 03:33:56;;;;;;;6.95;1.27;;;;;;;;;;4277639;33;20287;-58
2021/05/03 03:36:22;;;;;;;9.65;2.87;;;;;;;;;;4277501;33;20526;-57
2021/05/03 03:38:48;;;;;;;11.68;4.68;;;;;;;;;;4282701;33;20283;-56
2021/05/03 03:41:13;;;;;;;12.70;9.30;;;;;;;;;;4273083;33;20216;-56
2021/05/03 03:43:40;;;;;;;15.30;5.12;;;;;;;;;;4275188;33;20274;-56
2021/05/03 03:46:05;;;;;;;9.77;3.90;;;;;;;;;;4279169;33;20220;-57
2021/05/03 03:48:31;;;;;;;13.77;9.43;;;;;;;;;;4272921;33;20330;-58
2021/05/03 03:50:56;;;;;;;13.48;8.25;;;;;;;;;;4274092;33;20220;-58
2021/05/03 03:53:22;;;;;;;15.23;7.43;;;;;;;;;;4273212;33;20225;-57
2021/05/03 03:55:47;;;;;;;12.40;4.57;;;;;;;;;;4274419;33;20272;-57
2021/05/03 03:58:13;;;;;;;17.25;4.32;;;;;;;;;;4273405;33;20446;-58
2021/05/03 04:00:39;;;;;;;12.57;3.17;;;;;;;;;;4271246;33;20343;-58
2021/05/03 04:03:06;;;;;;;11.12;3.47;;;;;;;;;;4272899;33;20196;-57
2021/05/03 04:08:32;;;;;;;13.70;3.40;;;;;;;;;;4272925;33;20303;-58
2021/05/03 04:14:06;;;;;;;14.20;2.75;;;;;;;;;;4274964;33;20283;-57
2021/05/03 04:24:27;;;;;;;6.80;3.10;;;;;;;;;;4275709;33;20267;-56
2021/05/03 04:26:53;;;;;;;10.82;3.72;;;;;;;;;;4277960;33;20547;-57
2021/05/03 04:29:18;;;;;;;9.43;3.47;;;;;;;;;;4272062;33;20322;-56
2021/05/03 04:31:44;;;;;;;9.13;2.70;;;;;;;;;;4270491;33;20216;-56
2021/05/03 04:34:09;;;;;;;6.47;2.70;;;;;;;;;;4278179;33;20298;-56
2021/05/03 04:36:35;;;;;;;5.53;2.67;;;;;;;;;;4279033;33;20204;-57
2021/05/03 04:39:00;;;;;;;14.27;2.35;;;;;;;;;;4273755;33;20275;-56
2021/05/03 04:41:26;;;;;;;8.85;2.95;;;;;;;;;;4279750;33;20709;-56
2021/05/03 04:43:52;;;;;;;8.77;2.70;;;;;;;;;;4273709;33;20205;-56
2021/05/03 04:46:17;;;;;;;8.02;2.83;;;;;;;;;;4277503;33;20558;-57
2021/05/03 04:48:43;;;;;;;11.12;3.25;;;;;;;;;;4270925;33;20268;-57
2021/05/03 04:51:09;;;;;;;10.38;2.83;;;;;;;;;;4279371;33;20299;-56
2021/05/03 04:53:35;;;;;;;11.52;3.28;;;;;;;;;;4272879;33;20243;-56
2021/05/03 04:56:01;;;;;;;7.00;3.22;;;;;;;;;;4272845;33;20246;-56
2021/05/03 04:58:27;;;;;;;11.43;2.30;;;;;;;;;;4272677;33;20208;-57
2021/05/03 05:00:52;;;;;;;13.38;2.90;;;;;;;;;;4279384;33;20258;-58
2021/05/03 05:03:18;;;;;;;9.57;5.30;;;;;;;;;;4273866;33;20299;-58
2021/05/03 05:05:46;;;;;;;32.53;9.20;;;;;;;;;;4276968;33;20215;-58
2021/05/03 05:08:12;;;;;;;16.80;5.32;;;;;;;;;;4280091;33;20585;-58
2021/05/03 05:10:37;;;;;;;17.17;3.67;;;;;;;;;;4280834;33;20248;-58
2021/05/03 05:13:03;;;;;;;10.40;2.65;;;;;;;;;;4268130;33;20275;-58
2021/05/03 05:15:28;;;;;;;8.57;3.05;;;;;;;;;;4274015;33;20374;-58
2021/05/03 05:17:54;;;;;;;8.52;2.35;;;;;;;;;;4275052;33;20227;-58
2021/05/03 05:20:21;;;;;;;5.75;2.05;;;;;;;;;;4276960;33;20224;-57
2021/05/03 05:22:47;;;;;;;14.10;2.25;;;;;;;;;;4271089;33;20301;-57
2021/05/03 05:25:12;;;;;;;9.65;4.55;;;;;;;;;;4279397;33;20434;-57
2021/05/03 05:27:39;;;;;;;6.28;3.55;;;;;;;;;;4275576;33;20661;-56
2021/05/03 05:30:06;;;;;;;7.35;2.10;;;;;;;;;;4276803;33;20262;-57
2021/05/03 05:32:31;;;;;;;6.50;2.60;;;;;;;;;;4265111;33;20376;-56
2021/05/03 05:34:57;;;;;;;5.55;2.20;;;;;;;;;;4266932;33;20607;-56
2021/05/03 05:37:22;;;;;;;11.00;3.55;;;;;;;;;;4267484;33;20204;-57
2021/05/03 05:39:48;;;;;;;11.90;3.87;;;;;;;;;;4269177;33;20737;-57
2021/05/03 05:42:13;;;;;;;5.87;2.80;;;;;;;;;;4270384;33;20282;-58
2021/05/03 05:44:39;;;;;;;11.65;2.80;;;;;;;;;;4270512;33;20238;-57
2021/05/03 05:47:05;;;;;;;6.10;2.22;;;;;;;;;;4277356;33;20496;-57
2021/05/03 05:49:30;;;;;;;9.65;3.15;;;;;;;;;;4258981;33;20303;-57
2021/05/03 05:51:56;;;;;;;9.38;3.30;;;;;;;;;;4262552;33;20212;-58
2021/05/03 05:54:22;;;;;;;9.30;2.90;;;;;;;;;;4266396;33;20200;-56
2021/05/03 05:56:47;;;;;;;11.68;6.78;;;;;;;;;;4268478;33;20212;-56
2021/05/03 05:59:14;;;;;;;5.22;2.78;;;;;;;;;;4280104;33;20351;-57
2021/05/03 06:01:40;;;;;;;5.18;1.70;;;;;;;;;;4261150;33;20614;-57
2021/05/03 06:04:05;;;;;;;8.55;2.58;;;;;;;;;;4276042;33;20271;-56
2021/05/03 06:06:31;;;;;;;4.65;2.08;;;;;;;;;;4271392;33;20760;-56
2021/05/03 06:08:56;;;;;;;4.97;1.90;;;;;;;;;;4267593;33;20747;-56
2021/05/03 06:11:22;;;;;;;10.10;2.72;;;;;;;;;;4270973;33;20299;-57
2021/05/03 06:13:47;;;;;;;9.88;1.80;;;;;;;;;;4269454;33;20334;-56
2021/05/03 06:16:13;;;;;;;9.88;2.12;;;;;;;;;;4277065;33;20307;-57
2021/05/03 06:18:38;;;;;;;7.70;3.17;;;;;;;;;;4275964;33;20406;-58
2021/05/03 06:21:04;;;;;;;9.82;2.53;;;;;;;;;;4280961;33;20231;-59
2021/05/03 06:23:31;;;;;;;9.93;2.40;;;;;;;;;;4267607;33;20236;-59
2021/05/03 06:25:57;;;;;;;7.90;2.17;;;;;;;;;;4273779;33;20303;-59
2021/05/03 06:28:22;;;;;;;10.85;2.12;;;;;;;;;;4269736;33;20279;-59
2021/05/03 06:30:55;;;;;;;8.05;2.70;;;;;;;;;;4274149;33;20720;-57
2021/05/03 06:33:21;;;;;;;11.50;2.50;;;;;;;;;;4268736;33;20248;-59
2021/05/03 06:35:47;;;;;;;5.82;1.70;;;;;;;;;;4276620;33;20297;-58
2021/05/03 06:38:12;;;;;;;13.30;3.05;;;;;;;;;;4277182;33;20272;-58
2021/05/03 06:40:38;;;;;;;9.82;4.12;;;;;;;;;;4284732;33;20311;-57
2021/05/03 06:43:04;;;;;;;13.13;3.20;;;;;;;;;;4277173;33;20653;-58
2021/05/03 06:45:32;;;;;;;14.02;2.80;;;;;;;;;;4273067;33;20263;-58
2021/05/03 06:47:58;;;;;;;10.68;2.65;;;;;;;;;;4280075;33;20434;-58
2021/05/03 06:50:24;;;;;;;11.18;4.20;;;;;;;;;;4269926;33;20497;-58
2021/05/03 06:52:50;;;;;;;8.98;3.35;;;;;;;;;;4277639;33;20642;-58
2021/05/03 06:55:16;;;;;;;10.60;2.22;;;;;;;;;;4274406;33;20668;-58
2021/05/03 06:57:43;;;;;;;9.23;3.17;;;;;;;;;;4275154;33;20228;-56
2021/05/03 07:00:11;;;;;;;11.88;2.60;;;;;;;;;;4277319;33;20287;-59
2021/05/03 07:02:38;;;;;;;15.90;3.33;;;;;;;;;;4277028;33;20542;-62
2021/05/03 07:05:04;;;;;;;9.35;3.17;;;;;;;;;;4281589;33;20224;-61
2021/05/03 07:07:30;;;;;;;15.07;3.15;;;;;;;;;;4275112;33;20268;-58
2021/05/03 07:09:55;;;;;;;9.15;2.90;;;;;;;;;;4277189;33;20267;-59
2021/05/03 07:12:23;;;;;;;8.00;2.85;;;;;;;;;;4278303;33;20231;-59
2021/05/03 07:14:49;;;;;;;7.87;2.60;;;;;;;;;;4281313;33;20829;-60
2021/05/03 07:17:15;;;;;;;8.20;2.45;;;;;;;;;;4273069;33;20291;-59
2021/05/03 07:19:41;;;;;;;19.73;2.70;;;;;;;;;;4263317;33;20689;-58
2021/05/03 07:22:09;;;;;;;18.70;2.70;;;;;;;;;;4274793;33;20216;-57
2021/05/03 07:24:38;;;;;;;10.65;2.25;;;;;;;;;;4280820;33;20650;-57
2021/05/03 07:27:11;;;;;;;25.30;3.85;;;;;;;;;;4275486;33;20643;-57
2021/05/03 07:29:37;;;;;;;7.00;2.00;;;;;;;;;;4250444;33;20287;-56
2021/05/03 07:32:03;;;;;;;16.58;1.85;;;;;;;;;;4278491;33;20228;-58
2021/05/03 07:34:29;;;;;;;5.28;2.15;;;;;;;;;;4274426;33;20549;-57
2021/05/03 07:36:54;;;;;;;8.30;2.40;;;;;;;;;;4269648;33;20236;-58
2021/05/03 07:39:20;;;;;;;10.10;2.53;;;;;;;;;;4271182;33;20378;-61
2021/05/03 07:41:46;;;;;;;8.20;3.20;;;;;;;;;;4273650;33;20200;-59
2021/05/03 07:44:11;;;;;;;14.52;2.72;;;;;;;;;;4278831;33;20271;-58
2021/05/03 07:46:37;;;;;;;8.93;2.20;;;;;;;;;;4266107;33;20209;-58
2021/05/03 07:49:04;;;;;;;15.60;1.90;;;;;;;;;;4281878;33;20287;-57
2021/05/03 07:51:29;;;;;;;12.07;1.92;;;;;;;;;;4278778;33;20311;-59
2021/05/03 07:53:55;;;;;;;11.02;2.62;;;;;;;;;;4262874;33;20327;-60
2021/05/03 07:56:21;;;;;;;6.43;2.10;;;;;;;;;;4266590;33;20221;-58
2021/05/03 07:58:48;;;;;;;7.12;2.17;;;;;;;;;;4269527;33;20329;-59
2021/05/03 08:01:14;;;;;;;7.40;1.75;;;;;;;;;;4281135;33;20208;-60
2021/05/03 08:03:41;;;;;;;9.40;3.00;;;;;;;;;;4266434;33;20687;-59
2021/05/03 08:06:12;;;;;;;13.20;2.40;;;;;;;;;;4272239;33;20341;-58
2021/05/03 08:08:37;;;;;;;5.97;2.20;;;;;;;;;;4270705;33;20315;-57
2021/05/03 08:11:03;;;;;;;9.68;2.95;;;;;;;;;;4266681;33;20235;-57
2021/05/03 08:13:29;;;;;;;4.60;1.92;;;;;;;;;;4285757;33;20374;-58
2021/05/03 08:15:56;;;;;;;12.70;2.42;;;;;;;;;;4278693;33;20224;-58
2021/05/03 08:18:22;;;;;;;8.70;1.62;;;;;;;;;;4262588;33;20287;-57
2021/05/03 08:20:48;;;;;;;3.33;1.75;;;;;;;;;;4267379;33;20292;-58
2021/05/03 08:23:19;;;;;;;8.88;2.40;;;;;;;;;;4271095;33;20357;-57
2021/05/03 08:25:48;;;;;;;9.70;2.03;;;;;;;;;;4266071;33;20302;-56
2021/05/03 08:28:15;;;;;;;14.68;2.17;;;;;;;;;;4263648;33;20696;-57
2021/05/03 08:30:40;;;;;;;12.07;1.95;;;;;;;;;;4273992;33;20217;-57
2021/05/03 08:33:06;;;;;;;10.10;2.60;;;;;;;;;;4273289;33;20284;-57
2021/05/03 08:35:31;;;;;;;16.70;6.43;;;;;;;;;;4277928;33;20283;-57
2021/05/03 08:37:57;;;;;;;11.02;3.28;;;;;;;;;;4270951;33;20658;-57
2021/05/03 08:40:23;;;;;;;6.85;1.75;;;;;;;;;;4268878;33;20619;-59
2021/05/03 08:42:48;;;;;;;6.30;1.80;;;;;;;;;;4268859;33;20418;-59
2021/05/03 08:45:14;;;;;;;6.40;2.72;;;;;;;;;;4266082;33;20257;-58
2021/05/03 08:47:42;;;;;;;9.10;2.12;;;;;;;;;;4270447;33;20259;-59
2021/05/03 08:52:55;;;;;;;4.78;1.87;;;;;;;;;;4265939;33;20741;-58
2021/05/03 08:55:21;;;;;;;11.02;1.90;;;;;;;;;;4259157;33;20266;-58
2021/05/03 08:57:46;;;;;;;6.05;2.47;;;;;;;;;;4282013;33;20673;-57
2021/05/03 09:00:15;;;;;;;19.08;4.80;;;;;;;;;;4270225;33;20251;-58
2021/05/03 09:02:44;;;;;;;19.83;5.25;;;;;;;;;;4271983;33;20406;-59
2021/05/03 09:05:10;;;;;;;19.17;2.03;;;;;;;;;;4264403;33;20332;-59
2021/05/03 09:07:44;;;;;;;10.73;2.20;;;;;;;;;;4266479;33;20303;-59
2021/05/03 09:10:15;;;;;;;7.72;2.37;;;;;;;;;;4268737;33;20764;-60
2021/05/03 09:12:41;;;;;;;6.20;1.95;;;;;;;;;;4268868;33;20687;-59
2021/05/03 09:15:07;;;;;;;11.12;1.95;;;;;;;;;;4272048;33;20356;-58
2021/05/03 09:17:44;;;;;;;3.25;1.62;;;;;;;;;;4273989;33;20220;-58
2021/05/03 09:20:19;;;;;;;7.78;1.85;;;;;;;;;;4270005;33;20701;-59
2021/05/03 09:22:55;;;;;;;6.43;2.03;;;;;;;;;;4271291;33;20283;-59
2021/05/03 09:25:26;;;;;;;14.87;2.12;;;;;;;;;;4280925;33;20262;-58
2021/05/03 09:28:11;;;;;;;8.68;2.17;;;;;;;;;;4274321;33;20250;-59
2021/05/03 09:30:38;;;;;;;6.65;1.70;;;;;;;;;;4279989;33;20576;-57
2021/05/03 09:33:14;;;;;;;11.70;1.95;;;;;;;;;;4267247;33;20287;-58
2021/05/03 09:35:50;;;;;;;7.65;1.87;;;;;;;;;;4284016;33;20231;-58
2021/05/03 09:38:37;;;;;;;8.57;2.10;;;;;;;;;;4279377;33;20219;-58
2021/05/03 09:41:19;;;;;;;8.55;2.15;;;;;;;;;;4263363;33;20232;-58
2021/05/03 09:43:55;;;;;;;8.10;2.33;;;;;;;;;;4261917;33;20690;-56
2021/05/03 09:46:36;;;;;;;9.95;1.80;;;;;;;;;;4271161;33;20352;-57
2021/05/03 09:49:02;;;;;;;6.43;1.52;;;;;;;;;;4273186;33;20244;-57
2021/05/03 09:51:51;;;;;;;5.35;1.87;;;;;;;;;;4263922;33;20220;-59
2021/05/03 09:54:31;;;;;;;7.62;1.90;;;;;;;;;;4267316;33;20220;-59
2021/05/03 09:57:01;;;;;;;7.87;1.95;;;;;;;;;;4276325;33;20223;-59
2021/05/03 10:00:00;;;;;;;6.32;2.00;;;;;;;;;;4278053;33;20646;-58
2021/05/03 10:02:34;;;;;;;8.02;2.05;;;;;;;;;;4261065;33;20519;-59
2021/05/03 10:05:21;;;;;;;13.43;2.35;;;;;;;;;;4281348;33;20723;-58
2021/05/03 10:07:53;;;;;;;5.40;1.35;;;;;;;;;;4268677;33;20255;-57
2021/05/03 10:12:45;;;;;;;3.72;1.45;;;;;;;;;;4260692;33;20566;-57
2021/05/03 10:15:14;;;;;;;5.72;2.08;;;;;;;;;;4257293;33;20236;-60
2021/05/03 10:17:41;;;;;;;9.48;2.47;;;;;;;;;;4259781;33;20307;-59
2021/05/03 10:20:09;;;;;;;6.37;2.20;;;;;;;;;;4264639;33;20270;-59
2021/05/03 10:22:35;;;;;;;10.52;3.65;;;;;;;;;;4256642;33;20240;-60
2021/05/03 10:25:04;;;;;;;11.70;3.08;;;;;;;;;;4268063;33;20303;-59
2021/05/03 10:27:32;;;;;;;7.97;2.92;;;;;;;;;;4261722;33;20364;-58
2021/05/03 10:30:05;;;;;;;5.55;2.60;;;;;;;;;;4262377;33;20294;-58
2021/05/03 10:32:34;;;;;;;6.55;2.55;;;;;;;;;;4261146;33;20338;-58
2021/05/03 10:35:01;;;;;;;8.15;2.37;;;;;;;;;;4267983;33;20246;-59
2021/05/03 10:37:33;;;;;;;9.02;2.78;;;;;;;;;;4252965;33;20307;-59
2021/05/03 10:40:04;;;;;;;6.47;2.10;;;;;;;;;;4270262;33;20299;-62
2021/05/03 10:42:31;;;;;;;11.75;2.33;;;;;;;;;;4261731;33;20286;-60
2021/05/03 10:45:17;;;;;;;10.60;2.95;;;;;;;;;;4267735;33;20647;-60
2021/05/03 10:47:48;;;;;;;11.25;2.30;;;;;;;;;;4265504;33;20228;-59
2021/05/03 10:50:23;;;;;;;8.85;2.97;;;;;;;;;;4269967;33;20282;-59
2021/05/03 10:52:49;;;;;;;5.65;2.60;;;;;;;;;;4259878;33;20717;-58
2021/05/03 10:55:16;;;;;;;12.00;2.53;;;;;;;;;;4268049;33;20286;-58
2021/05/03 10:57:41;;;;;;;13.38;3.03;;;;;;;;;;4263033;33;20244;-57
2021/05/03 11:00:10;;;;;;;6.75;2.55;;;;;;;;;;4269286;33;20725;-58
2021/05/03 11:02:36;;;;;;;10.23;2.55;;;;;;;;;;4263005;33;20244;-60
2021/05/03 11:05:22;;;;;;;6.87;2.45;;;;;;;;;;4269870;33;20447;-58
2021/05/03 11:08:03;;;;;;;9.98;2.12;;;;;;;;;;4260075;33;20293;-58
2021/05/03 11:11:06;;;;;;;4.50;1.90;;;;;;;;;;4268275;33;20257;-58
2021/05/03 11:13:52;;;;;;;7.25;1.95;;;;;;;;;;4272995;33;20220;-58
2021/05/03 11:16:30;;;;;;;9.48;2.62;;;;;;;;;;4275610;33;20287;-59
2021/05/03 11:18:59;;;;;;;9.48;2.50;;;;;;;;;;4283035;33;20274;-58
2021/05/03 11:21:45;;;;;;;4.97;2.00;;;;;;;;;;4284927;33;20601;-58
2021/05/03 11:24:24;;;;;;;10.73;3.10;;;;;;;;;;4267393;33;20231;-58
2021/05/03 11:26:57;;;;;;;13.85;2.80;;;;;;;;;;4278218;33;20236;-59
2021/05/03 11:29:29;;;;;;;16.83;3.42;;;;;;;;;;4264931;33;20250;-58
2021/05/03 11:31:55;;;;;;;10.05;2.40;;;;;;;;;;4259842;33;20325;-59
2021/05/03 11:34:34;;;;;;;12.77;3.30;;;;;;;;;;4270033;33;20275;-61
2021/05/03 11:37:06;;;;;;;9.50;2.60;;;;;;;;;;4271835;33;20402;-57
2021/05/03 11:40:04;;;;;;;8.32;2.30;;;;;;;;;;4276785;33;20339;-58
2021/05/03 11:42:59;;;;;;;5.25;2.30;;;;;;;;;;4275631;33;20727;-57
2021/05/03 11:45:29;;;;;;;10.25;2.85;;;;;;;;;;4259974;33;20286;-58
2021/05/03 11:47:55;;;;;;;3.17;2.17;;;;;;;;;;4265972;33;20264;-58
2021/05/03 11:50:23;;;;;;;13.75;2.85;;;;;;;;;;4266506;33;20236;-59
2021/05/03 11:52:50;;;;;;;12.35;2.58;;;;;;;;;;4258775;33;20376;-59
2021/05/03 11:55:18;;;;;;;3.72;2.10;;;;;;;;;;4266785;33;20330;-59
2021/05/03 11:57:46;;;;;;;8.88;2.22;;;;;;;;;;4265583;33;20291;-59
2021/05/03 12:00:14;;;;;;;17.65;3.15;;;;;;;;;;4268824;33;20267;-60
2021/05/03 12:02:40;;;;;;;8.48;2.53;;;;;;;;;;4267140;33;20870;-58
2021/05/03 12:05:17;;;;;;;10.93;2.58;;;;;;;;;;4260088;33;20236;-59
2021/05/03 12:07:45;;;;;;;8.13;2.17;;;;;;;;;;4266506;33;20308;-57
2021/05/03 12:10:16;;;;;;;8.25;2.72;;;;;;;;;;4276359;33;20298;-60
2021/05/03 12:12:42;;;;;;;15.60;2.90;;;;;;;;;;4280956;33;20254;-60
2021/05/03 12:15:22;;;;;;;7.57;2.95;;;;;;;;;;4272280;33;20232;-59
2021/05/03 12:17:48;;;;;;;6.07;2.22;;;;;;;;;;4274532;33;20246;-58
2021/05/03 12:20:22;;;;;;;6.45;2.10;;;;;;;;;;4289200;33;20263;-57
2021/05/03 12:23:02;;;;;;;11.73;2.20;;;;;;;;;;4279056;33;20326;-57
2021/05/03 12:25:44;;;;;;;6.45;2.20;;;;;;;;;;4271035;33;20560;-57
2021/05/03 12:28:12;;;;;;;9.40;2.08;;;;;;;;;;4270856;33;20243;-56
2021/05/03 12:30:39;;;;;;;5.35;2.30;;;;;;;;;;4269120;33;20220;-57
2021/05/03 12:33:09;;;;;;;6.00;2.75;;;;;;;;;;4270084;33;20267;-56
2021/05/03 12:35:35;;;;;;;9.18;2.58;;;;;;;;;;4270650;33;20290;-55
2021/05/03 12:38:23;;;;;;;6.87;2.35;;;;;;;;;;4271082;33;20224;-57
2021/05/03 12:40:48;;;;;;;9.38;2.05;;;;;;;;;;4269528;33;20361;-56
2021/05/03 12:43:14;;;;;;;10.88;2.10;;;;;;;;;;4271519;33;20384;-56
2021/05/03 12:46:02;;;;;;;8.05;2.35;;;;;;;;;;4270455;33;20232;-56
2021/05/03 12:48:51;;;;;;;7.37;2.33;;;;;;;;;;4270356;33;20308;-56
2021/05/03 13:07:24;;;;;;;9.48;2.20;;;;;;;;;;4269510;33;20216;-60
2021/05/03 13:24:58;;;;;;;11.32;2.62;;;;;;;;;;4269457;33;20275;-59
2021/05/03 13:30:16;;;;;;;9.23;3.22;;;;;;;;;;4267602;33;20708;-60
2021/05/03 13:32:42;;;;;;;19.45;2.30;;;;;;;;;;4263245;33;20364;-58
2021/05/03 13:35:08;;;;;;;8.60;2.20;;;;;;;;;;4266436;33;20624;-58
2021/05/03 13:37:33;;;;;;;11.82;2.17;;;;;;;;;;4265651;33;20263;-57
2021/05/03 13:39:59;;;;;;;11.70;2.10;;;;;;;;;;4263267;33;20339;-62
2021/05/03 13:42:24;;;;;;;10.00;1.80;;;;;;;;;;4258907;33;20274;-57
2021/05/03 13:44:50;;;;;;;7.15;2.17;;;;;;;;;;4271875;33;21050;-56
2021/05/03 13:47:16;;;;;;;20.27;2.85;;;;;;;;;;4274065;33;20213;-55
2021/05/03 13:49:41;;;;;;;26.80;3.12;;;;;;;;;;4261179;33;20617;-55
2021/05/03 13:52:08;;;;;;;5.82;2.42;;;;;;;;;;4275709;33;20251;-56
2021/05/03 13:54:34;;;;;;;8.85;2.00;;;;;;;;;;4276237;33;20729;-56
2021/05/03 13:57:05;;;;;;;9.35;2.33;;;;;;;;;;4277175;33;20720;-57
2021/05/03 13:59:30;;;;;;;7.40;2.15;;;;;;;;;;4256662;33;20233;-56
2021/05/03 14:01:56;;;;;;;17.27;1.80;;;;;;;;;;4275500;33;20333;-56
2021/05/03 14:04:22;;;;;;;9.05;2.05;;;;;;;;;;4261579;33;20314;-55
2021/05/03 14:06:48;;;;;;;16.27;1.90;;;;;;;;;;4256697;33;20372;-56
2021/05/03 14:09:15;;;;;;;12.30;2.30;;;;;;;;;;4260809;33;20342;-57
2021/05/03 14:11:41;;;;;;;5.90;1.70;;;;;;;;;;4268601;33;20338;-56
2021/05/03 14:14:07;;;;;;;10.20;1.98;;;;;;;;;;4256081;33;20300;-58
2021/05/03 14:16:34;;;;;;;16.95;2.35;;;;;;;;;;4256345;33;20540;-58
2021/05/03 14:19:02;;;;;;;9.00;1.98;;;;;;;;;;4270333;33;20294;-57
2021/05/03 14:21:28;;;;;;;6.15;2.20;;;;;;;;;;4269739;33;20224;-60
2021/05/03 14:23:53;;;;;;;5.75;1.92;;;;;;;;;;4257091;33;20310;-59
2021/05/03 14:26:23;;;;;;;7.95;2.17;;;;;;;;;;4255713;33;20233;-59
2021/05/03 14:29:14;;;;;;;8.23;2.33;;;;;;;;;;4266331;33;20224;-59
2021/05/03 14:31:39;;;;;;;11.45;2.58;;;;;;;;;;4268736;33;20679;-59
2021/05/03 14:36:49;;;;;;;10.55;1.98;;;;;;;;;;4257049;33;20371;-60
2021/05/03 14:39:15;;;;;;;7.15;2.50;;;;;;;;;;4270501;33;20769;-60
2021/05/03 14:41:41;;;;;;;7.95;2.25;;;;;;;;;;4268536;33;20326;-60
2021/05/03 14:44:09;;;;;;;4.97;2.03;;;;;;;;;;4256488;33;20296;-61
2021/05/03 14:46:39;;;;;;;8.70;2.62;;;;;;;;;;4266972;33;20237;-59
2021/05/03 14:56:30;;;;;;;7.85;1.98;;;;;;;;;;4279400;33;20597;-60
2021/05/03 14:58:58;;;;;;;7.35;3.08;;;;;;;;;;4259360;33;20290;-60
2021/05/03 15:01:24;;;;;;;6.15;2.17;;;;;;;;;;4271063;33;20236;-59
2021/05/03 15:03:49;;;;;;;10.63;2.42;;;;;;;;;;4268608;33;20338;-59
2021/05/03 15:06:17;;;;;;;6.03;2.40;;;;;;;;;;4260140;33;20527;-60
2021/05/03 15:08:42;;;;;;;8.73;3.10;;;;;;;;;;4279327;33;20569;-60
2021/05/03 15:11:08;;;;;;;5.37;2.83;;;;;;;;;;4282332;33;20294;-59
2021/05/03 15:13:36;;;;;;;6.30;2.60;;;;;;;;;;4281377;33;20342;-58
2021/05/03 15:21:36;;;;;;;7.03;2.50;;;;;;;;;;4274839;33;20247;-57
2021/05/03 15:24:07;;;;;;;14.35;3.15;;;;;;;;;;4260203;33;20235;-57
2021/05/03 15:26:34;;;;;;;8.52;3.10;;;;;;;;;;4270673;33;20236;-57
2021/05/03 15:31:53;;;;;;;7.78;3.53;;;;;;;;;;4270015;33;20267;-56
2021/05/03 15:34:20;;;;;;;10.20;3.30;;;;;;;;;;4271855;33;20287;-56
2021/05/03 15:36:46;;;;;;;5.78;3.22;;;;;;;;;;4281179;33;20649;-56
2021/05/03 15:39:12;;;;;;;8.95;3.00;;;;;;;;;;4258480;33;20709;-57
2021/05/03 15:41:38;;;;;;;7.85;3.60;;;;;;;;;;4275373;33;20208;-58
2021/05/03 15:44:14;;;;;;;6.82;3.35;;;;;;;;;;4257715;33;20717;-58
2021/05/03 15:46:40;;;;;;;5.07;3.20;;;;;;;;;;4258437;33;20405;-60
2021/05/03 15:49:06;;;;;;;12.45;3.22;;;;;;;;;;4258394;33;20781;-59
2021/05/03 15:51:32;;;;;;;4.85;3.22;;;;;;;;;;4275048;33;20247;-59
2021/05/03 15:53:57;;;;;;;6.95;3.47;;;;;;;;;;4262446;33;20304;-60
2021/05/03 15:56:23;;;;;;;8.95;4.70;;;;;;;;;;4278518;33;20257;-60